sensor_id;sensor_type;location;lat;lon;timestamp;P1;durP1;ratioP1;P2;durP2;ratioP2
17261;SDS011;9873;52.236;21.002;2024-02-26T00:03:58;14.30;;;8.35;;
17261;SDS011;9873;52.236;21.002;2024-02-26T00:14:02;17.77;;;8.27;;
17261;SDS011;9873;52.236;21.002;2024-02-26T00:24:07;12.68;;;8.20;;
17261;SDS011;9873;52.236;21.002;2024-02-26T00:34:12;18.87;;;12.07;;
17261;SDS011;9873;52.236;21.002;2024-02-26T00:44:18;18.17;;;10.93;;
17261;SDS011;9873;52.236;21.002;2024-02-26T00:54:20;19.95;;;11.60;;
17261;SDS011;9873;52.236;21.002;2024-02-26T01:04:27;22.07;;;10.40;;
17261;SDS011;9873;52.236;21.002;2024-02-26T01:14:32;18.33;;;11.67;;
17261;SDS011;9873;52.236;21.002;2024-02-26T01:24:35;18.47;;;10.57;;
17261;SDS011;9873;52.236;21.002;2024-02-26T01:34:40;18.43;;;10.33;;
17261;SDS011;9873;52.236;21.002;2024-02-26T01:44:45;20.03;;;9.63;;
17261;SDS011;9873;52.236;21.002;2024-02-26T01:54:47;16.07;;;9.17;;
17261;SDS011;9873;52.236;21.002;2024-02-26T02:04:52;16.03;;;8.87;;
17261;SDS011;9873;52.236;21.002;2024-02-26T02:14:54;17.77;;;10.43;;
17261;SDS011;9873;52.236;21.002;2024-02-26T02:25:00;16.83;;;9.40;;
17261;SDS011;9873;52.236;21.002;2024-02-26T02:35:05;15.93;;;9.30;;
17261;SDS011;9873;52.236;21.002;2024-02-26T02:45:10;16.70;;;10.63;;
17261;SDS011;9873;52.236;21.002;2024-02-26T02:55:16;18.43;;;11.07;;
17261;SDS011;9873;52.236;21.002;2024-02-26T03:05:24;18.40;;;11.20;;
17261;SDS011;9873;52.236;21.002;2024-02-26T03:15:29;16.40;;;8.83;;
17261;SDS011;9873;52.236;21.002;2024-02-26T03:25:39;19.23;;;11.60;;
17261;SDS011;9873;52.236;21.002;2024-02-26T03:35:48;19.77;;;11.90;;
17261;SDS011;9873;52.236;21.002;2024-02-26T03:45:51;22.40;;;13.23;;
17261;SDS011;9873;52.236;21.002;2024-02-26T03:55:57;22.33;;;13.20;;
17261;SDS011;9873;52.236;21.002;2024-02-26T04:06:01;20.70;;;13.00;;
17261;SDS011;9873;52.236;21.002;2024-02-26T04:16:05;21.83;;;13.23;;
17261;SDS011;9873;52.236;21.002;2024-02-26T04:26:10;24.70;;;14.70;;
17261;SDS011;9873;52.236;21.002;2024-02-26T04:36:14;23.90;;;12.97;;
17261;SDS011;9873;52.236;21.002;2024-02-26T04:46:20;24.10;;;12.80;;
17261;SDS011;9873;52.236;21.002;2024-02-26T04:56:24;25.47;;;14.07;;
17261;SDS011;9873;52.236;21.002;2024-02-26T05:06:26;25.67;;;15.63;;
17261;SDS011;9873;52.236;21.002;2024-02-26T05:16:32;28.30;;;16.77;;
17261;SDS011;9873;52.236;21.002;2024-02-26T05:26:34;25.73;;;15.83;;
17261;SDS011;9873;52.236;21.002;2024-02-26T05:36:36;22.97;;;13.33;;
17261;SDS011;9873;52.236;21.002;2024-02-26T05:46:39;20.70;;;12.17;;
17261;SDS011;9873;52.236;21.002;2024-02-26T05:56:41;20.70;;;11.53;;
17261;SDS011;9873;52.236;21.002;2024-02-26T06:06:48;16.83;;;10.83;;
17261;SDS011;9873;52.236;21.002;2024-02-26T06:16:51;16.90;;;10.70;;
17261;SDS011;9873;52.236;21.002;2024-02-26T06:26:56;18.00;;;10.82;;
17261;SDS011;9873;52.236;21.002;2024-02-26T06:36:59;20.08;;;15.15;;
17261;SDS011;9873;52.236;21.002;2024-02-26T06:47:06;17.10;;;10.77;;
17261;SDS011;9873;52.236;21.002;2024-02-26T06:57:13;20.65;;;11.63;;
17261;SDS011;9873;52.236;21.002;2024-02-26T07:07:18;16.47;;;11.03;;
17261;SDS011;9873;52.236;21.002;2024-02-26T07:17:21;20.75;;;13.10;;
17261;SDS011;9873;52.236;21.002;2024-02-26T07:27:24;19.77;;;13.25;;
17261;SDS011;9873;52.236;21.002;2024-02-26T07:37:32;18.80;;;13.35;;
17261;SDS011;9873;52.236;21.002;2024-02-26T07:47:36;20.55;;;12.93;;
17261;SDS011;9873;52.236;21.002;2024-02-26T07:57:45;20.15;;;14.05;;
17261;SDS011;9873;52.236;21.002;2024-02-26T08:07:47;19.98;;;13.18;;
17261;SDS011;9873;52.236;21.002;2024-02-26T08:17:50;18.60;;;13.27;;
17261;SDS011;9873;52.236;21.002;2024-02-26T08:27:54;19.17;;;13.18;;
17261;SDS011;9873;52.236;21.002;2024-02-26T08:37:57;19.80;;;13.93;;
17261;SDS011;9873;52.236;21.002;2024-02-26T08:48:04;17.73;;;12.65;;
17261;SDS011;9873;52.236;21.002;2024-02-26T08:58:10;19.70;;;13.55;;
17261;SDS011;9873;52.236;21.002;2024-02-26T09:08:12;20.40;;;13.55;;
17261;SDS011;9873;52.236;21.002;2024-02-26T09:18:17;20.45;;;14.02;;
17261;SDS011;9873;52.236;21.002;2024-02-26T09:28:19;17.15;;;13.13;;
17261;SDS011;9873;52.236;21.002;2024-02-26T09:38:22;20.77;;;13.95;;
17261;SDS011;9873;52.236;21.002;2024-02-26T09:48:30;19.58;;;13.52;;
17261;SDS011;9873;52.236;21.002;2024-02-26T09:58:36;20.15;;;12.77;;
17261;SDS011;9873;52.236;21.002;2024-02-26T10:08:43;17.73;;;13.52;;
17261;SDS011;9873;52.236;21.002;2024-02-26T10:29:05;18.67;;;14.75;;
17261;SDS011;9873;52.236;21.002;2024-02-26T10:39:09;21.88;;;12.95;;
17261;SDS011;9873;52.236;21.002;2024-02-26T10:49:14;14.63;;;11.48;;
17261;SDS011;9873;52.236;21.002;2024-02-26T10:59:21;11.85;;;9.88;;
17261;SDS011;9873;52.236;21.002;2024-02-26T11:09:24;13.77;;;10.57;;
17261;SDS011;9873;52.236;21.002;2024-02-26T11:19:30;11.20;;;8.30;;
17261;SDS011;9873;52.236;21.002;2024-02-26T11:29:44;13.43;;;7.70;;
17261;SDS011;9873;52.236;21.002;2024-02-26T11:39:52;11.07;;;8.00;;
17261;SDS011;9873;52.236;21.002;2024-02-26T11:49:55;11.75;;;7.65;;
17261;SDS011;9873;52.236;21.002;2024-02-26T12:00:11;9.30;;;6.75;;
17261;SDS011;9873;52.236;21.002;2024-02-26T12:10:24;9.90;;;6.85;;
17261;SDS011;9873;52.236;21.002;2024-02-26T12:20:31;8.43;;;6.45;;
17261;SDS011;9873;52.236;21.002;2024-02-26T12:30:37;9.27;;;6.85;;
17261;SDS011;9873;52.236;21.002;2024-02-26T12:40:41;6.95;;;6.25;;
17261;SDS011;9873;52.236;21.002;2024-02-26T12:50:48;6.47;;;5.32;;
17261;SDS011;9873;52.236;21.002;2024-02-26T13:00:54;9.48;;;4.97;;
17261;SDS011;9873;52.236;21.002;2024-02-26T13:11:00;6.72;;;3.90;;
17261;SDS011;9873;52.236;21.002;2024-02-26T13:21:13;4.13;;;3.45;;
17261;SDS011;9873;52.236;21.002;2024-02-26T13:31:18;3.60;;;3.10;;
17261;SDS011;9873;52.236;21.002;2024-02-26T13:41:23;4.50;;;3.53;;
17261;SDS011;9873;52.236;21.002;2024-02-26T13:51:29;3.85;;;3.45;;
17261;SDS011;9873;52.236;21.002;2024-02-26T14:01:39;2.97;;;2.60;;
17261;SDS011;9873;52.236;21.002;2024-02-26T14:11:55;5.22;;;3.47;;
17261;SDS011;9873;52.236;21.002;2024-02-26T14:22:00;5.45;;;3.63;;
17261;SDS011;9873;52.236;21.002;2024-02-26T14:32:07;5.55;;;3.95;;
17261;SDS011;9873;52.236;21.002;2024-02-26T14:42:14;5.00;;;3.63;;
17261;SDS011;9873;52.236;21.002;2024-02-26T14:52:24;4.00;;;3.17;;
17261;SDS011;9873;52.236;21.002;2024-02-26T15:02:32;6.05;;;3.22;;
17261;SDS011;9873;52.236;21.002;2024-02-26T15:12:37;3.92;;;2.90;;
17261;SDS011;9873;52.236;21.002;2024-02-26T15:22:44;5.35;;;3.25;;
17261;SDS011;9873;52.236;21.002;2024-02-26T15:32:51;4.90;;;3.30;;
17261;SDS011;9873;52.236;21.002;2024-02-26T15:42:56;6.20;;;3.13;;
17261;SDS011;9873;52.236;21.002;2024-02-26T15:53:00;9.00;;;3.65;;
17261;SDS011;9873;52.236;21.002;2024-02-26T16:03:16;6.38;;;3.78;;
17261;SDS011;9873;52.236;21.002;2024-02-26T16:13:21;6.22;;;4.25;;
17261;SDS011;9873;52.236;21.002;2024-02-26T16:23:26;10.48;;;6.03;;
17261;SDS011;9873;52.236;21.002;2024-02-26T16:33:29;7.25;;;5.32;;
17261;SDS011;9873;52.236;21.002;2024-02-26T16:43:38;9.60;;;6.68;;
17261;SDS011;9873;52.236;21.002;2024-02-26T16:53:43;10.88;;;6.90;;
17261;SDS011;9873;52.236;21.002;2024-02-26T17:03:46;9.93;;;6.97;;
17261;SDS011;9873;52.236;21.002;2024-02-26T17:13:51;15.57;;;8.52;;
17261;SDS011;9873;52.236;21.002;2024-02-26T17:24:02;14.85;;;10.45;;
17261;SDS011;9873;52.236;21.002;2024-02-26T17:34:08;20.40;;;14.02;;
17261;SDS011;9873;52.236;21.002;2024-02-26T17:44:11;23.85;;;15.52;;
17261;SDS011;9873;52.236;21.002;2024-02-26T17:54:15;22.85;;;16.35;;
17261;SDS011;9873;52.236;21.002;2024-02-26T18:04:23;24.88;;;18.40;;
17261;SDS011;9873;52.236;21.002;2024-02-26T18:14:26;27.00;;;18.25;;
17261;SDS011;9873;52.236;21.002;2024-02-26T18:24:31;30.77;;;19.17;;
17261;SDS011;9873;52.236;21.002;2024-02-26T18:34:36;31.92;;;20.65;;
17261;SDS011;9873;52.236;21.002;2024-02-26T18:44:42;33.25;;;21.33;;
17261;SDS011;9873;52.236;21.002;2024-02-26T18:54:44;39.72;;;23.27;;
17261;SDS011;9873;52.236;21.002;2024-02-26T19:15:08;35.40;;;23.10;;
17261;SDS011;9873;52.236;21.002;2024-02-26T19:25:12;37.85;;;23.52;;
17261;SDS011;9873;52.236;21.002;2024-02-26T19:35:17;36.97;;;22.95;;
17261;SDS011;9873;52.236;21.002;2024-02-26T19:45:20;36.13;;;23.95;;
17261;SDS011;9873;52.236;21.002;2024-02-26T19:55:24;36.30;;;22.85;;
17261;SDS011;9873;52.236;21.002;2024-02-26T20:05:32;38.88;;;25.42;;
17261;SDS011;9873;52.236;21.002;2024-02-26T20:15:34;36.35;;;25.13;;
17261;SDS011;9873;52.236;21.002;2024-02-26T20:25:41;39.17;;;26.05;;
17261;SDS011;9873;52.236;21.002;2024-02-26T20:35:49;38.63;;;25.58;;
17261;SDS011;9873;52.236;21.002;2024-02-26T20:45:53;42.13;;;29.38;;
17261;SDS011;9873;52.236;21.002;2024-02-26T20:56:00;43.40;;;26.63;;
17261;SDS011;9873;52.236;21.002;2024-02-26T21:06:18;44.00;;;27.23;;
17261;SDS011;9873;52.236;21.002;2024-02-26T21:16:25;41.17;;;26.17;;
17261;SDS011;9873;52.236;21.002;2024-02-26T21:26:27;43.33;;;28.20;;
17261;SDS011;9873;52.236;21.002;2024-02-26T21:36:30;42.92;;;27.38;;
17261;SDS011;9873;52.236;21.002;2024-02-26T21:46:38;43.13;;;26.33;;
17261;SDS011;9873;52.236;21.002;2024-02-26T21:56:45;45.05;;;29.23;;
17261;SDS011;9873;52.236;21.002;2024-02-26T22:06:52;45.60;;;28.42;;
17261;SDS011;9873;52.236;21.002;2024-02-26T22:17:02;43.13;;;27.00;;
17261;SDS011;9873;52.236;21.002;2024-02-26T22:27:04;45.65;;;27.38;;
17261;SDS011;9873;52.236;21.002;2024-02-26T22:37:17;43.75;;;26.40;;
17261;SDS011;9873;52.236;21.002;2024-02-26T22:47:20;43.38;;;27.80;;
17261;SDS011;9873;52.236;21.002;2024-02-26T22:57:29;41.88;;;26.88;;
17261;SDS011;9873;52.236;21.002;2024-02-26T23:07:31;47.00;;;34.65;;
17261;SDS011;9873;52.236;21.002;2024-02-26T23:17:34;42.67;;;27.05;;
17261;SDS011;9873;52.236;21.002;2024-02-26T23:27:40;42.88;;;25.65;;
17261;SDS011;9873;52.236;21.002;2024-02-26T23:37:49;42.78;;;26.45;;
17261;SDS011;9873;52.236;21.002;2024-02-26T23:47:54;44.00;;;26.73;;
17261;SDS011;9873;52.236;21.002;2024-02-26T23:57:57;36.25;;;24.15;;
